createdAt,value
2022-08-18T00:03:01.490Z,18.20
2022-08-18T00:07:12.103Z,18.20
2022-08-18T00:11:13.717Z,18.10
2022-08-18T00:15:16.793Z,18.00
2022-08-18T00:19:18.475Z,18.10
2022-08-18T00:23:20.190Z,18.20
2022-08-18T00:27:28.757Z,18.10
2022-08-18T00:31:31.648Z,18.20
2022-08-18T00:35:34.833Z,18.10
2022-08-18T00:39:37.126Z,18.10
2022-08-18T00:43:44.058Z,17.90
2022-08-18T00:47:46.265Z,18.20
2022-08-18T00:51:50.482Z,18.20
2022-08-18T00:55:54.347Z,18.40
2022-08-18T01:00:02.858Z,18.00
2022-08-18T01:04:24.805Z,17.80
2022-08-18T01:08:28.604Z,17.60
2022-08-18T01:12:45.218Z,17.80
2022-08-18T01:17:07.957Z,17.80
2022-08-18T01:21:30.740Z,17.60
2022-08-18T01:25:51.270Z,17.60
2022-08-18T01:29:52.888Z,17.40
2022-08-18T01:33:54.819Z,17.50
2022-08-18T01:37:56.422Z,17.80
2022-08-18T01:41:58.186Z,17.50
2022-08-18T01:46:01.007Z,17.30
2022-08-18T01:50:03.884Z,17.10
2022-08-18T01:54:05.657Z,17.30
2022-08-18T01:58:08.106Z,17.30
2022-08-18T02:02:10.497Z,17.40
2022-08-18T02:06:32.190Z,17.20
2022-08-18T02:10:35.541Z,17.20
2022-08-18T02:14:38.347Z,17.20
2022-08-18T02:18:47.464Z,17.20
2022-08-18T02:22:50.489Z,16.90
2022-08-18T02:26:52.241Z,17.00
2022-08-18T02:30:53.866Z,17.20
2022-08-18T02:34:55.998Z,17.20
2022-08-18T02:38:59.845Z,17.20
2022-08-18T02:43:09.216Z,17.10
2022-08-18T02:47:10.871Z,16.90
2022-08-18T02:51:14.095Z,17.00
2022-08-18T02:55:16.108Z,17.10
2022-08-18T02:59:19.918Z,16.80
2022-08-18T03:03:21.650Z,16.70
2022-08-18T03:07:24.101Z,16.90
2022-08-18T03:11:26.507Z,16.70
2022-08-18T03:15:28.174Z,16.70
2022-08-18T03:19:31.181Z,16.90
2022-08-18T03:23:32.900Z,16.80
2022-08-18T03:27:35.022Z,16.70
2022-08-18T03:31:38.375Z,16.60
2022-08-18T03:35:41.488Z,16.60
2022-08-18T03:39:43.162Z,16.70
2022-08-18T03:43:51.019Z,16.60
2022-08-18T03:47:53.377Z,16.50
2022-08-18T03:51:55.767Z,16.30
2022-08-18T03:55:57.358Z,16.20
2022-08-18T03:59:59.771Z,16.20
2022-08-18T04:04:05.519Z,16.10
2022-08-18T04:08:07.207Z,16.00
2022-08-18T04:12:15.496Z,16.00
2022-08-18T04:16:18.757Z,16.00
2022-08-18T04:20:23.278Z,16.20
2022-08-18T04:24:28.221Z,16.20
2022-08-18T04:28:32.833Z,16.20
2022-08-18T04:32:34.944Z,16.50
2022-08-18T04:36:37.093Z,16.30
2022-08-18T04:40:38.868Z,16.30
2022-08-18T04:44:42.066Z,16.30
2022-08-18T04:48:43.888Z,16.40
2022-08-18T04:53:06.931Z,16.30
2022-08-18T04:57:12.765Z,16.40
2022-08-18T05:01:14.541Z,16.40
2022-08-18T05:05:16.242Z,16.30
2022-08-18T05:09:22.793Z,16.30
2022-08-18T05:13:26.443Z,16.50
2022-08-18T05:17:30.072Z,16.30
2022-08-18T05:21:33.830Z,16.50
2022-08-18T05:25:40.100Z,16.50
2022-08-18T05:29:45.822Z,16.60
2022-08-18T05:33:48.965Z,16.60
2022-08-18T05:37:50.869Z,16.60
2022-08-18T05:41:55.932Z,16.60
2022-08-18T05:45:58.678Z,16.70
2022-08-18T05:50:08.672Z,16.80
2022-08-18T05:54:28.981Z,16.80
2022-08-18T05:58:35.513Z,16.80
2022-08-18T06:02:41.015Z,16.90
2022-08-18T06:06:47.496Z,16.90
2022-08-18T06:10:50.524Z,16.90
2022-08-18T06:14:58.431Z,16.90
2022-08-18T06:19:00.514Z,16.80
2022-08-18T06:23:02.355Z,16.70
2022-08-18T06:27:07.057Z,16.90
2022-08-18T06:31:16.108Z,16.80
2022-08-18T06:35:27.661Z,16.80
2022-08-18T06:39:32.148Z,16.80
2022-08-18T06:43:35.431Z,16.70
2022-08-18T06:47:49.682Z,16.70
2022-08-18T06:51:51.641Z,16.80
2022-08-18T06:55:53.347Z,17.10
2022-08-18T07:00:00.366Z,16.80
2022-08-18T07:04:02.091Z,16.70
2022-08-18T07:08:21.085Z,16.70
2022-08-18T07:12:27.793Z,16.80
2022-08-18T07:16:57.827Z,16.80
2022-08-18T07:20:59.924Z,16.70
2022-08-18T07:25:05.563Z,16.70
2022-08-18T07:29:16.657Z,16.70
2022-08-18T07:33:22.253Z,16.70
2022-08-18T07:37:42.555Z,16.70
2022-08-18T07:42:01.922Z,16.60
2022-08-18T07:46:08.255Z,16.60
2022-08-18T07:50:36.463Z,16.60
2022-08-18T07:54:48.754Z,16.80
2022-08-18T07:59:01.622Z,16.70
2022-08-18T08:03:23.354Z,16.70
2022-08-18T08:07:27.598Z,16.80
2022-08-18T08:11:32.320Z,16.80
2022-08-18T08:15:52.825Z,17.00
2022-08-18T08:20:13.321Z,17.10
2022-08-18T08:24:21.062Z,17.00
2022-08-18T08:28:32.092Z,17.20
2022-08-18T08:32:37.835Z,17.30
2022-08-18T08:36:40.975Z,17.30
2022-08-18T08:40:42.936Z,17.30
2022-08-18T08:45:00.199Z,17.30
2022-08-18T08:49:28.512Z,17.30
2022-08-18T08:53:36.228Z,17.20
2022-08-18T08:57:41.053Z,17.30
2022-08-18T09:01:51.777Z,17.20
2022-08-18T09:05:59.542Z,17.20
2022-08-18T09:10:17.342Z,17.20
2022-08-18T09:14:19.044Z,17.30
2022-08-18T09:18:39.490Z,17.30
2022-08-18T09:22:49.021Z,17.20
2022-08-18T09:26:52.999Z,17.30
2022-08-18T09:31:08.669Z,17.40
2022-08-18T09:35:23.433Z,17.60
2022-08-18T09:39:53.789Z,17.80
2022-08-18T09:44:18.239Z,17.90
2022-08-18T09:48:32.617Z,17.70
2022-08-18T09:52:37.318Z,17.70
2022-08-18T09:56:54.550Z,17.60
2022-08-18T10:01:20.661Z,17.80
2022-08-18T10:05:22.444Z,18.10
2022-08-18T10:09:36.943Z,18.00
2022-08-18T10:13:49.109Z,17.90
2022-08-18T10:17:54.351Z,18.00
2022-08-18T10:21:58.797Z,18.10
2022-08-18T10:26:04.440Z,18.20
2022-08-18T10:30:07.742Z,18.20
2022-08-18T10:34:37.100Z,18.10
2022-08-18T10:47:37.881Z,18.30
2022-08-18T10:52:00.069Z,18.40
2022-08-18T10:56:02.588Z,18.60
2022-08-18T11:00:12.536Z,18.80
2022-08-18T11:04:34.537Z,19.20
2022-08-18T11:08:47.030Z,19.30
2022-08-18T11:13:00.519Z,19.40
2022-08-18T11:17:17.786Z,19.30
2022-08-18T11:21:27.743Z,19.20
2022-08-18T11:25:35.687Z,19.20
2022-08-18T11:29:39.379Z,19.30
2022-08-18T11:33:42.397Z,19.50
2022-08-18T11:37:53.190Z,19.50
2022-08-18T11:41:58.644Z,19.60
2022-08-18T11:46:07.939Z,19.70
2022-08-18T11:50:11.923Z,19.40
2022-08-18T11:54:16.181Z,19.70
2022-08-18T11:58:36.800Z,19.80
2022-08-18T12:02:38.594Z,20.00
2022-08-18T12:06:50.599Z,19.90
2022-08-18T12:11:01.725Z,20.30
2022-08-18T12:19:57.955Z,20.40
2022-08-18T12:24:01.129Z,20.50
2022-08-18T12:28:03.183Z,20.80
2022-08-18T12:32:17.852Z,20.70
2022-08-18T12:36:35.209Z,20.70
2022-08-18T12:40:39.995Z,21.30
2022-08-18T12:44:42.310Z,21.30
2022-08-18T12:48:45.796Z,21.10
2022-08-18T12:52:48.026Z,21.10
2022-08-18T12:56:51.032Z,21.30
2022-08-18T13:00:52.695Z,21.00
2022-08-18T13:04:54.395Z,21.20
2022-08-18T13:08:56.868Z,21.20
2022-08-18T13:12:58.581Z,21.40
2022-08-18T13:17:00.736Z,21.50
2022-08-18T13:21:07.167Z,21.80
2022-08-18T13:25:11.509Z,22.10
2022-08-18T13:29:15.449Z,21.90
2022-08-18T13:33:35.057Z,21.80
2022-08-18T13:37:41.648Z,21.90
2022-08-18T13:41:45.632Z,22.20
2022-08-18T13:45:53.439Z,22.30
2022-08-18T13:49:59.937Z,22.20
2022-08-18T13:54:30.376Z,22.40
2022-08-18T13:58:23.588Z,22.20
2022-08-18T14:02:26.698Z,22.30
2022-08-18T14:10:31.402Z,22.50
2022-08-18T14:14:33.688Z,22.50
2022-08-18T14:18:35.875Z,22.50
2022-08-18T14:22:59.611Z,22.40
2022-08-18T14:27:01.305Z,22.40
2022-08-18T14:31:03.904Z,22.70
2022-08-18T14:36:03.816Z,22.70
2022-08-18T14:39:32.002Z,22.60
2022-08-18T14:43:53.905Z,22.70
2022-08-18T14:48:00.405Z,22.70
2022-08-18T14:52:02.138Z,22.90
2022-08-18T14:56:04.992Z,22.90
2022-08-18T15:00:14.170Z,22.80
2022-08-18T15:04:18.786Z,22.90
2022-08-18T15:12:24.968Z,22.90
2022-08-18T15:16:31.599Z,22.90
2022-08-18T15:20:34.136Z,23.00
2022-08-18T15:24:58.474Z,22.80
2022-08-18T15:29:07.691Z,22.70
2022-08-18T15:33:13.927Z,22.90
2022-08-18T15:37:19.569Z,22.80
2022-08-18T15:41:44.653Z,22.90
2022-08-18T15:45:57.826Z,23.00
2022-08-18T15:50:00.287Z,23.30
2022-08-18T15:54:09.118Z,23.10
2022-08-18T15:58:13.554Z,23.20
2022-08-18T16:02:20.071Z,22.90
2022-08-18T16:06:27.857Z,23.00
2022-08-18T16:10:36.812Z,23.20
2022-08-18T16:14:39.216Z,23.20
2022-08-18T16:18:40.894Z,23.30
2022-08-18T16:22:43.404Z,23.40
2022-08-18T16:26:45.099Z,23.30
2022-08-18T16:30:49.360Z,23.30
2022-08-18T16:34:53.415Z,23.40
2022-08-18T16:38:56.098Z,23.70
2022-08-18T16:43:12.348Z,23.60
2022-08-18T16:47:17.644Z,23.50
2022-08-18T16:51:27.152Z,23.40
2022-08-18T16:55:32.202Z,23.60
2022-08-18T16:59:59.689Z,23.50
2022-08-18T17:04:20.797Z,23.40
2022-08-18T17:08:26.814Z,23.50
2022-08-18T17:12:28.849Z,23.50
2022-08-18T17:16:30.696Z,23.50
2022-08-18T17:20:33.998Z,23.30
2022-08-18T17:24:45.126Z,23.40
2022-08-18T17:28:57.901Z,23.10
2022-08-18T17:33:18.876Z,23.10
2022-08-18T17:37:23.197Z,23.00
2022-08-18T17:41:28.197Z,23.10
2022-08-18T17:45:46.858Z,22.90
2022-08-18T17:50:27.016Z,22.90
2022-08-18T17:55:10.145Z,22.80
2022-08-18T17:59:51.340Z,22.60
2022-08-18T18:04:28.078Z,22.50
2022-08-18T18:08:49.849Z,22.70
2022-08-18T18:13:22.390Z,22.60
2022-08-18T18:17:25.826Z,22.60
2022-08-18T18:22:01.021Z,22.50
2022-08-18T18:25:50.632Z,22.30
2022-08-18T18:34:28.975Z,22.10
2022-08-18T18:38:35.317Z,22.10
2022-08-18T18:42:37.200Z,22.10
2022-08-18T18:46:41.906Z,22.00
2022-08-18T18:51:15.544Z,21.90
2022-08-18T18:55:39.741Z,21.80
2022-08-18T18:59:48.017Z,21.70
2022-08-18T19:03:54.037Z,21.70
2022-08-18T19:08:06.110Z,21.70
2022-08-18T19:12:27.832Z,21.50
2022-08-18T19:16:51.560Z,21.40
2022-08-18T19:21:38.113Z,20.90
2022-08-18T19:25:22.660Z,20.70
2022-08-18T19:29:42.276Z,20.90
2022-08-18T19:33:51.242Z,21.00
2022-08-18T19:38:04.867Z,20.70
2022-08-18T19:42:27.540Z,20.50
2022-08-18T19:46:42.315Z,20.50
2022-08-18T19:50:45.145Z,20.50
2022-08-18T19:55:01.038Z,20.10
2022-08-18T19:59:15.500Z,19.90
2022-08-18T20:03:23.323Z,19.90
2022-08-18T20:07:28.372Z,19.70
2022-08-18T20:11:41.947Z,19.50
2022-08-18T20:16:05.066Z,19.50
2022-08-18T20:35:15.023Z,19.70
2022-08-18T20:57:37.961Z,19.30
2022-08-18T21:01:40.207Z,19.20
2022-08-18T21:05:44.397Z,19.20
2022-08-18T21:09:53.743Z,19.00
2022-08-18T21:13:57.113Z,19.00
2022-08-18T21:18:06.618Z,19.00
2022-08-18T21:22:10.674Z,19.10
2022-08-18T21:26:14.212Z,19.00
2022-08-18T21:30:23.574Z,19.00
2022-08-18T21:34:30.112Z,19.00
2022-08-18T21:38:32.472Z,18.90
2022-08-18T21:42:37.041Z,18.80
2022-08-18T21:46:39.162Z,18.80
2022-08-18T21:50:48.689Z,18.80
2022-08-18T21:54:50.382Z,18.90
2022-08-18T21:59:04.882Z,18.80
2022-08-18T22:03:11.333Z,18.70
2022-08-18T22:07:23.416Z,18.70
2022-08-18T22:12:00.384Z,18.60
2022-08-18T22:16:22.797Z,18.50
2022-08-18T22:20:33.630Z,18.60
2022-08-18T22:24:37.534Z,18.50
2022-08-18T22:28:45.677Z,18.60
2022-08-18T22:32:47.314Z,18.30
2022-08-18T22:36:52.764Z,18.40
2022-08-18T22:40:54.459Z,18.30
2022-08-18T22:45:04.473Z,18.40
2022-08-18T22:49:06.644Z,18.20
2022-08-18T22:53:08.247Z,18.30
2022-08-18T22:57:09.878Z,18.20
2022-08-18T23:01:12.427Z,18.10
2022-08-18T23:05:14.050Z,18.30
2022-08-18T23:09:15.656Z,18.30
2022-08-18T23:13:17.482Z,18.30
2022-08-18T23:17:21.329Z,18.30
2022-08-18T23:21:34.673Z,18.10
2022-08-18T23:25:37.213Z,18.00
2022-08-18T23:29:39.690Z,18.00
2022-08-18T23:33:41.684Z,18.10
2022-08-18T23:37:43.250Z,18.10
2022-08-18T23:41:45.051Z,18.20
2022-08-18T23:45:49.918Z,18.20
2022-08-18T23:49:53.258Z,18.10
2022-08-18T23:53:56.789Z,18.10
2022-08-18T23:57:58.481Z,18.10
